createdAt,value
2023-05-04T00:02:06.498Z,16.50
2023-05-04T00:04:34.842Z,16.40
2023-05-04T00:07:03.217Z,16.40
2023-05-04T00:09:31.842Z,16.40
2023-05-04T00:12:00.231Z,16.40
2023-05-04T00:14:29.945Z,16.40
2023-05-04T00:16:58.211Z,16.40
2023-05-04T00:19:26.527Z,16.30
2023-05-04T00:21:54.850Z,16.30
2023-05-04T00:24:23.155Z,16.20
2023-05-04T00:26:51.512Z,16.20
2023-05-04T00:29:19.854Z,16.20
2023-05-04T00:31:49.643Z,16.20
2023-05-04T00:34:18.548Z,16.20
2023-05-04T00:36:47.301Z,16.20
2023-05-04T00:39:15.810Z,16.20
2023-05-04T00:41:44.642Z,16.20
2023-05-04T00:44:13.091Z,16.20
2023-05-04T00:46:41.827Z,16.20
2023-05-04T00:49:11.790Z,16.20
2023-05-04T00:51:41.030Z,16.20
2023-05-04T00:54:09.328Z,16.20
2023-05-04T00:56:42.284Z,16.20
2023-05-04T00:59:10.970Z,16.10
2023-05-04T01:01:39.362Z,16.10
2023-05-04T01:04:08.522Z,16.10
2023-05-04T01:06:44.965Z,16.10
2023-05-04T01:09:20.475Z,16.10
2023-05-04T01:11:56.117Z,16.10
2023-05-04T01:14:24.532Z,16.10
2023-05-04T01:16:56.573Z,16.10
2023-05-04T01:19:25.092Z,16.00
2023-05-04T01:21:54.868Z,16.00
2023-05-04T01:24:24.188Z,16.00
2023-05-04T01:26:57.544Z,15.90
2023-05-04T01:29:33.034Z,16.00
2023-05-04T01:32:03.663Z,15.90
2023-05-04T01:34:32.159Z,15.90
2023-05-04T01:37:02.559Z,15.80
2023-05-04T01:39:31.119Z,15.70
2023-05-04T01:41:59.515Z,15.70
2023-05-04T01:44:27.818Z,15.70
2023-05-04T01:46:56.235Z,15.70
2023-05-04T01:49:24.667Z,15.60
2023-05-04T01:51:53.000Z,15.60
2023-05-04T01:54:22.634Z,15.60
2023-05-04T01:56:51.110Z,15.50
2023-05-04T01:59:19.392Z,15.50
2023-05-04T02:01:47.755Z,15.30
2023-05-04T02:04:16.176Z,15.30
2023-05-04T02:06:44.430Z,15.30
2023-05-04T02:09:12.856Z,15.20
2023-05-04T02:11:42.520Z,15.20
2023-05-04T02:14:10.876Z,15.20
2023-05-04T02:16:39.940Z,15.20
2023-05-04T02:19:08.360Z,15.20
2023-05-04T02:21:36.720Z,15.20
2023-05-04T02:24:06.995Z,15.20
2023-05-04T02:26:36.341Z,15.20
2023-05-04T02:29:06.390Z,15.20
2023-05-04T02:31:35.116Z,15.30
2023-05-04T02:34:03.651Z,15.30
2023-05-04T02:36:31.991Z,15.30
2023-05-04T02:39:00.562Z,15.30
2023-05-04T02:41:28.894Z,15.40
2023-05-04T02:43:57.443Z,15.30
2023-05-04T02:46:27.563Z,15.40
2023-05-04T02:48:56.284Z,15.40
2023-05-04T02:51:24.805Z,15.30
2023-05-04T02:53:53.136Z,15.30
2023-05-04T02:56:21.484Z,15.20
2023-05-04T02:58:49.772Z,15.30
2023-05-04T03:01:18.153Z,15.30
2023-05-04T03:03:47.941Z,15.30
2023-05-04T03:06:16.322Z,15.30
2023-05-04T03:08:44.582Z,15.30
2023-05-04T03:11:12.900Z,15.30
2023-05-04T03:13:41.218Z,15.20
2023-05-04T03:16:09.522Z,15.20
2023-05-04T03:18:37.946Z,15.20
2023-05-04T03:21:07.668Z,15.20
2023-05-04T03:23:36.413Z,15.10
2023-05-04T03:26:05.060Z,15.10
2023-05-04T03:28:33.477Z,15.10
2023-05-04T03:31:01.828Z,15.10
2023-05-04T03:33:30.128Z,15.10
2023-05-04T03:35:59.737Z,15.10
2023-05-04T03:38:29.499Z,15.10
2023-05-04T03:40:57.751Z,15.20
2023-05-04T03:43:26.065Z,15.10
2023-05-04T03:45:54.339Z,15.10
2023-05-04T03:48:22.727Z,15.10
2023-05-04T03:50:51.028Z,15.10
2023-05-04T03:53:19.356Z,15.10
2023-05-04T03:55:49.046Z,15.10
2023-05-04T03:58:17.367Z,15.10
2023-05-04T04:00:45.703Z,15.00
2023-05-04T04:03:14.196Z,15.00
2023-05-04T04:05:42.792Z,15.00
2023-05-04T04:08:11.160Z,15.00
2023-05-04T04:10:39.540Z,15.00
2023-05-04T04:13:09.323Z,15.00
2023-05-04T04:15:37.685Z,15.00
2023-05-04T04:18:06.161Z,15.00
2023-05-04T04:20:34.772Z,15.00
2023-05-04T04:23:03.153Z,15.00
2023-05-04T04:25:31.688Z,15.00
2023-05-04T04:27:59.932Z,15.00
2023-05-04T04:30:29.655Z,15.00
2023-05-04T04:32:57.964Z,14.90
2023-05-04T04:35:27.539Z,14.90
2023-05-04T04:37:55.923Z,15.00
2023-05-04T04:40:24.453Z,15.00
2023-05-04T04:42:53.010Z,15.00
2023-05-04T04:45:21.643Z,15.00
2023-05-04T04:47:51.488Z,14.90
2023-05-04T04:50:19.981Z,14.90
2023-05-04T04:52:48.335Z,14.90
2023-05-04T04:55:17.337Z,15.00
2023-05-04T04:57:45.660Z,15.00
2023-05-04T05:00:14.902Z,15.00
2023-05-04T05:02:43.842Z,15.00
2023-05-04T05:05:14.045Z,15.00
2023-05-04T05:07:42.795Z,15.00
2023-05-04T05:10:12.566Z,15.00
2023-05-04T05:12:41.560Z,15.00
2023-05-04T05:15:10.736Z,14.90
2023-05-04T05:17:39.378Z,15.00
2023-05-04T05:20:10.953Z,15.00
2023-05-04T05:22:40.957Z,15.10
2023-05-04T05:25:09.896Z,15.10
2023-05-04T05:27:38.261Z,15.20
2023-05-04T05:30:07.930Z,15.20
2023-05-04T05:32:36.405Z,15.20
2023-05-04T05:35:04.969Z,15.20
2023-05-04T05:37:33.478Z,15.20
2023-05-04T05:40:06.188Z,15.20
2023-05-04T05:42:34.902Z,15.20
2023-05-04T05:45:04.747Z,15.20
2023-05-04T05:47:33.169Z,15.30
2023-05-04T05:50:01.458Z,15.30
2023-05-04T05:52:29.825Z,15.30
2023-05-04T05:55:02.256Z,15.30
2023-05-04T05:57:39.696Z,15.20
2023-05-04T06:00:09.928Z,15.20
2023-05-04T06:02:38.586Z,15.20
2023-05-04T06:05:07.448Z,15.20
2023-05-04T06:07:36.442Z,15.10
2023-05-04T06:10:05.499Z,15.10
2023-05-04T06:12:35.605Z,15.10
2023-05-04T06:15:03.976Z,15.10
2023-05-04T06:17:32.400Z,15.10
2023-05-04T06:20:00.682Z,15.20
2023-05-04T06:22:29.055Z,15.10
2023-05-04T06:25:02.763Z,15.00
2023-05-04T06:27:32.994Z,15.10
2023-05-04T06:30:02.850Z,15.10
2023-05-04T06:32:31.351Z,15.00
2023-05-04T06:35:00.194Z,15.00
2023-05-04T06:37:28.575Z,15.10
2023-05-04T06:39:57.099Z,15.10
2023-05-04T06:42:25.600Z,15.10
2023-05-04T06:44:53.935Z,15.00
2023-05-04T06:47:23.836Z,15.10
2023-05-04T06:49:52.243Z,15.10
2023-05-04T06:52:21.726Z,15.10
2023-05-04T06:54:49.979Z,15.10
2023-05-04T06:57:18.252Z,15.00
2023-05-04T06:59:46.641Z,15.10
2023-05-04T07:02:15.031Z,15.00
2023-05-04T07:04:44.878Z,15.00
2023-05-04T07:07:13.222Z,15.10
2023-05-04T07:09:43.700Z,15.10
2023-05-04T07:12:12.062Z,15.10
2023-05-04T07:14:40.368Z,15.00
2023-05-04T07:17:10.110Z,15.00
2023-05-04T07:19:38.432Z,15.00
2023-05-04T07:22:08.084Z,15.10
2023-05-04T07:24:36.447Z,15.10
2023-05-04T07:27:04.845Z,15.10
2023-05-04T07:29:33.509Z,15.10
2023-05-04T07:32:01.977Z,15.10
2023-05-04T07:34:41.754Z,15.10
2023-05-04T07:37:15.911Z,15.10
2023-05-04T07:39:44.421Z,15.10
2023-05-04T07:42:12.892Z,15.10
2023-05-04T07:44:41.468Z,15.10
2023-05-04T07:47:10.216Z,15.20
2023-05-04T07:49:38.571Z,15.20
2023-05-04T07:52:07.174Z,15.10
2023-05-04T07:54:37.431Z,15.20
2023-05-04T07:57:05.996Z,15.20
2023-05-04T07:59:34.345Z,15.30
2023-05-04T08:02:02.889Z,15.30
2023-05-04T08:04:31.671Z,15.30
2023-05-04T08:07:00.054Z,15.30
2023-05-04T08:09:28.464Z,15.40
2023-05-04T08:11:58.247Z,15.40
2023-05-04T08:14:26.614Z,15.40
2023-05-04T08:16:55.011Z,15.50
2023-05-04T08:19:23.787Z,15.50
2023-05-04T08:21:53.118Z,15.50
2023-05-04T08:24:21.476Z,15.50
2023-05-04T08:27:03.666Z,15.50
2023-05-04T08:29:37.445Z,15.60
2023-05-04T08:32:07.767Z,15.60
2023-05-04T08:34:37.528Z,15.60
2023-05-04T08:37:06.189Z,15.70
2023-05-04T08:39:34.678Z,15.70
2023-05-04T08:42:03.700Z,15.70
2023-05-04T08:44:32.126Z,15.70
2023-05-04T08:47:04.888Z,15.70
2023-05-04T08:49:33.523Z,15.70
2023-05-04T08:52:02.487Z,15.80
2023-05-04T08:54:30.978Z,15.80
2023-05-04T08:56:59.825Z,15.80
2023-05-04T08:59:30.310Z,15.80
2023-05-04T09:02:00.032Z,15.90
2023-05-04T09:04:29.952Z,15.90
2023-05-04T09:06:59.021Z,15.90
2023-05-04T09:09:29.744Z,15.90
2023-05-04T09:11:59.117Z,15.90
2023-05-04T09:14:35.749Z,16.00
2023-05-04T09:17:13.437Z,16.00
2023-05-04T09:19:44.868Z,16.00
2023-05-04T09:22:17.394Z,16.00
2023-05-04T09:24:46.620Z,16.00
2023-05-04T09:27:18.366Z,16.00
2023-05-04T09:29:54.842Z,16.00
2023-05-04T09:32:24.283Z,16.00
2023-05-04T09:34:55.126Z,16.00
2023-05-04T09:37:24.133Z,16.10
2023-05-04T09:39:57.008Z,16.10
2023-05-04T09:42:25.824Z,16.10
2023-05-04T09:45:05.148Z,16.10
2023-05-04T09:47:38.497Z,16.10
2023-05-04T09:50:18.337Z,16.20
2023-05-04T09:52:48.554Z,16.10
2023-05-04T09:55:18.640Z,16.10
2023-05-04T09:57:48.254Z,16.10
2023-05-04T10:00:18.407Z,16.20
2023-05-04T10:02:48.126Z,16.20
2023-05-04T10:05:21.397Z,16.20
2023-05-04T10:07:49.875Z,16.20
2023-05-04T10:10:18.310Z,16.30
2023-05-04T10:12:46.939Z,16.40
2023-05-04T10:15:17.202Z,16.40
2023-05-04T10:18:07.109Z,16.40
2023-05-04T10:20:53.796Z,16.50
2023-05-04T10:23:48.053Z,16.50
2023-05-04T10:26:38.789Z,16.50
2023-05-04T10:29:14.588Z,16.50
2023-05-04T10:31:44.713Z,16.50
2023-05-04T10:34:13.365Z,16.60
2023-05-04T10:36:43.100Z,16.60
2023-05-04T10:39:20.444Z,16.70
2023-05-04T10:42:03.801Z,16.70
2023-05-04T10:44:33.291Z,16.80
2023-05-04T10:47:05.486Z,16.90
2023-05-04T10:49:34.763Z,17.00
2023-05-04T10:52:10.015Z,17.00
2023-05-04T10:54:39.150Z,17.10
2023-05-04T10:57:09.248Z,17.30
2023-05-04T10:59:38.222Z,17.30
2023-05-04T11:02:07.792Z,17.50
2023-05-04T11:04:36.467Z,17.60
2023-05-04T11:07:06.934Z,17.80
2023-05-04T11:09:40.801Z,17.90
2023-05-04T11:12:11.598Z,18.00
2023-05-04T11:14:43.364Z,18.00
2023-05-04T11:17:27.414Z,18.10
2023-05-04T11:19:57.064Z,18.00
2023-05-04T11:22:25.537Z,18.00
2023-05-04T11:24:56.317Z,18.00
2023-05-04T11:27:26.115Z,18.00
2023-05-04T11:29:58.823Z,18.10
2023-05-04T11:32:38.069Z,18.10
2023-05-04T11:35:10.180Z,18.10
2023-05-04T11:37:42.180Z,18.20
2023-05-04T11:40:14.205Z,18.20
2023-05-04T11:42:46.201Z,18.30
2023-05-04T11:45:18.441Z,18.40
2023-05-04T11:47:47.478Z,18.40
2023-05-04T11:50:17.839Z,18.40
2023-05-04T11:52:46.274Z,18.50
2023-05-04T11:55:28.618Z,18.60
2023-05-04T11:58:00.442Z,18.80
2023-05-04T12:00:40.142Z,18.90
2023-05-04T12:03:09.878Z,18.90
2023-05-04T12:05:39.005Z,18.90
2023-05-04T12:08:12.498Z,18.90
2023-05-04T12:10:42.299Z,19.10
2023-05-04T12:13:18.114Z,19.10
2023-05-04T12:15:46.762Z,19.30
2023-05-04T12:18:29.704Z,19.40
2023-05-04T12:20:58.152Z,19.40
2023-05-04T12:23:26.432Z,19.50
2023-05-04T12:25:58.341Z,19.60
2023-05-04T12:28:30.663Z,19.50
2023-05-04T12:30:59.854Z,19.50
2023-05-04T12:33:28.529Z,19.50
2023-05-04T12:35:56.909Z,19.50
2023-05-04T12:38:25.622Z,19.60
2023-05-04T12:40:55.500Z,19.60
2023-05-04T12:43:23.949Z,19.60
2023-05-04T12:45:52.977Z,19.60
2023-05-04T12:48:22.116Z,19.70
2023-05-04T12:50:51.327Z,19.70
2023-05-04T12:53:22.344Z,19.80
2023-05-04T12:55:50.785Z,19.90
2023-05-04T12:58:20.504Z,20.00
2023-05-04T13:00:51.840Z,20.10
2023-05-04T13:03:20.366Z,20.20
2023-05-04T13:05:49.866Z,20.20
2023-05-04T13:08:19.826Z,20.40
2023-05-04T13:10:48.521Z,20.50
2023-05-04T13:13:18.116Z,20.50
2023-05-04T13:15:51.476Z,20.60
2023-05-04T13:18:26.958Z,20.60
2023-05-04T13:21:32.171Z,20.60
2023-05-04T13:24:03.427Z,20.60
2023-05-04T13:26:37.729Z,20.60
2023-05-04T13:29:06.191Z,20.60
2023-05-04T13:31:36.005Z,20.60
2023-05-04T13:34:07.635Z,20.70
2023-05-04T13:36:36.219Z,20.60
2023-05-04T13:39:11.299Z,20.60
2023-05-04T13:41:39.705Z,20.60
2023-05-04T13:44:08.011Z,20.50
2023-05-04T13:46:38.239Z,20.40
2023-05-04T13:49:06.619Z,20.30
2023-05-04T13:51:35.184Z,20.20
2023-05-04T13:54:03.792Z,20.20
2023-05-04T13:56:32.196Z,20.10
2023-05-04T13:59:00.467Z,20.10
2023-05-04T14:01:28.779Z,20.00
2023-05-04T14:03:58.533Z,19.90
2023-05-04T14:06:29.707Z,19.80
2023-05-04T14:08:58.051Z,19.80
2023-05-04T14:11:26.494Z,19.70
2023-05-04T14:13:55.989Z,19.70
2023-05-04T14:16:24.443Z,19.70
2023-05-04T14:18:52.884Z,19.60
2023-05-04T14:21:22.665Z,19.60
2023-05-04T14:23:50.959Z,19.60
2023-05-04T14:26:19.244Z,19.60
2023-05-04T14:28:48.228Z,19.60
2023-05-04T14:31:16.630Z,19.60
2023-05-04T14:33:45.046Z,19.60
2023-05-04T14:36:13.944Z,19.50
2023-05-04T14:38:43.670Z,19.50
2023-05-04T14:41:13.748Z,19.50
2023-05-04T14:43:42.525Z,19.50
2023-05-04T14:46:12.755Z,19.50
2023-05-04T14:48:41.217Z,19.40
2023-05-04T14:51:09.520Z,19.40
2023-05-04T14:53:39.262Z,19.40
2023-05-04T14:56:09.625Z,19.30
2023-05-04T14:58:38.001Z,19.30
2023-05-04T15:01:06.672Z,19.30
2023-05-04T15:03:35.065Z,19.30
2023-05-04T15:06:03.770Z,19.30
2023-05-04T15:08:32.095Z,19.30
2023-05-04T15:11:00.553Z,19.30
2023-05-04T15:13:31.860Z,19.30
2023-05-04T15:16:00.223Z,19.30
2023-05-04T15:18:28.907Z,19.30
2023-05-04T15:20:57.245Z,19.20
2023-05-04T15:23:25.532Z,19.20
2023-05-04T15:25:53.874Z,19.20
2023-05-04T15:28:23.023Z,19.20
2023-05-04T15:30:52.880Z,19.10
2023-05-04T15:33:21.743Z,19.10
2023-05-04T15:35:49.996Z,19.10
2023-05-04T15:38:18.320Z,19.10
2023-05-04T15:40:46.765Z,19.10
2023-05-04T15:43:15.311Z,19.10
2023-05-04T15:45:43.754Z,19.10
2023-05-04T15:48:13.516Z,19.10
2023-05-04T15:50:42.910Z,19.10
2023-05-04T15:53:11.284Z,19.10
2023-05-04T15:55:40.318Z,19.20
2023-05-04T15:58:08.830Z,19.20
2023-05-04T16:00:37.730Z,19.20
2023-05-04T16:03:06.885Z,19.20
2023-05-04T16:05:37.084Z,19.20
2023-05-04T16:08:05.682Z,19.20
2023-05-04T16:10:34.429Z,19.30
2023-05-04T16:13:04.358Z,19.30
2023-05-04T16:15:32.878Z,19.30
2023-05-04T16:18:01.276Z,19.30
2023-05-04T16:20:30.358Z,19.30
2023-05-04T16:23:00.086Z,19.40
2023-05-04T16:25:28.399Z,19.40
2023-05-04T16:27:57.242Z,19.40
2023-05-04T16:30:32.237Z,19.40
2023-05-04T16:33:01.295Z,19.40
2023-05-04T16:35:30.722Z,19.40
2023-05-04T16:38:00.664Z,19.40
2023-05-04T16:40:29.408Z,19.40
2023-05-04T16:42:57.704Z,19.40
2023-05-04T16:45:31.213Z,19.40
2023-05-04T16:47:59.883Z,19.40
2023-05-04T16:50:31.663Z,19.40
2023-05-04T16:53:01.440Z,19.40
2023-05-04T16:55:29.770Z,19.30
2023-05-04T16:57:59.790Z,19.30
2023-05-04T17:00:29.272Z,19.30
2023-05-04T17:02:57.731Z,19.30
2023-05-04T17:05:26.554Z,19.30
2023-05-04T17:07:59.181Z,19.30
2023-05-04T17:10:29.064Z,19.30
2023-05-04T17:12:57.521Z,19.30
2023-05-04T17:15:29.443Z,19.20
2023-05-04T17:17:57.788Z,19.20
2023-05-04T17:20:30.057Z,19.20
2023-05-04T17:22:58.936Z,19.20
2023-05-04T17:25:28.843Z,19.20
2023-05-04T17:27:57.470Z,19.10
2023-05-04T17:30:26.139Z,19.10
2023-05-04T17:32:57.126Z,19.10
2023-05-04T17:35:26.767Z,19.10
2023-05-04T17:37:58.527Z,19.00
2023-05-04T17:40:29.234Z,19.00
2023-05-04T17:42:57.952Z,19.00
2023-05-04T17:45:26.460Z,19.00
2023-05-04T17:48:00.840Z,19.00
2023-05-04T17:50:29.316Z,19.10
2023-05-04T17:53:00.863Z,19.10
2023-05-04T17:55:30.797Z,19.10
2023-05-04T17:57:59.351Z,19.10
2023-05-04T18:00:28.039Z,19.00
2023-05-04T18:02:56.452Z,19.10
2023-05-04T18:05:25.775Z,19.00
2023-05-04T18:07:54.127Z,19.00
2023-05-04T18:10:22.625Z,19.00
2023-05-04T18:12:52.384Z,19.00
2023-05-04T18:15:20.948Z,19.00
2023-05-04T18:17:50.777Z,18.90
2023-05-04T18:20:23.946Z,18.90
2023-05-04T18:22:54.266Z,18.90
2023-05-04T18:25:22.761Z,18.90
2023-05-04T18:27:52.493Z,18.90
2023-05-04T18:30:20.900Z,18.90
2023-05-04T18:32:50.982Z,18.80
2023-05-04T18:35:22.161Z,18.80
2023-05-04T18:37:50.982Z,18.80
2023-05-04T18:40:19.474Z,18.80
2023-05-04T18:42:47.757Z,18.80
2023-05-04T18:45:17.567Z,18.80
2023-05-04T18:47:46.017Z,18.80
2023-05-04T18:50:14.698Z,18.80
2023-05-04T18:52:43.131Z,18.70
2023-05-04T18:55:11.857Z,18.70
2023-05-04T18:57:41.443Z,18.70
2023-05-04T19:00:11.737Z,18.70
2023-05-04T19:02:41.492Z,18.60
2023-05-04T19:05:12.317Z,18.60
2023-05-04T19:07:42.882Z,18.60
2023-05-04T19:10:12.342Z,18.60
2023-05-04T19:12:40.665Z,18.60
2023-05-04T19:15:09.986Z,18.60
2023-05-04T19:17:38.289Z,18.50
2023-05-04T19:20:09.718Z,18.50
2023-05-04T19:22:38.126Z,18.50
2023-05-04T19:25:07.967Z,18.50
2023-05-04T19:27:36.321Z,18.40
2023-05-04T19:30:05.286Z,18.40
2023-05-04T19:32:33.812Z,18.40
2023-05-04T19:35:02.140Z,18.40
2023-05-04T19:37:33.903Z,18.30
2023-05-04T19:40:02.461Z,18.30
2023-05-04T19:42:30.995Z,18.30
2023-05-04T19:44:59.243Z,18.30
2023-05-04T19:47:29.925Z,18.30
2023-05-04T19:49:58.277Z,18.20
2023-05-04T19:52:26.597Z,18.20
2023-05-04T19:54:56.454Z,18.20
2023-05-04T19:57:24.793Z,18.20
2023-05-04T19:59:53.174Z,18.20
2023-05-04T20:02:21.502Z,18.10
2023-05-04T20:04:49.887Z,18.10
2023-05-04T20:07:18.284Z,18.10
2023-05-04T20:09:46.703Z,18.10
2023-05-04T20:12:16.387Z,18.10
2023-05-04T20:14:44.686Z,18.00
2023-05-04T20:17:12.993Z,18.00
2023-05-04T20:19:43.072Z,18.00
2023-05-04T20:22:11.548Z,18.00
2023-05-04T20:24:40.887Z,18.00
2023-05-04T20:27:09.516Z,18.00
2023-05-04T20:29:39.324Z,18.00
2023-05-04T20:32:09.027Z,18.00
2023-05-04T20:34:39.540Z,18.00
2023-05-04T20:37:08.009Z,18.00
2023-05-04T20:39:36.330Z,18.00
2023-05-04T20:42:05.688Z,18.00
2023-05-04T20:44:35.249Z,18.00
2023-05-04T20:47:05.658Z,17.90
2023-05-04T20:49:33.991Z,17.90
2023-05-04T20:52:02.276Z,17.90
2023-05-04T20:54:30.566Z,17.90
2023-05-04T20:57:01.768Z,17.90
2023-05-04T20:59:30.191Z,17.90
2023-05-04T21:01:58.887Z,17.90
2023-05-04T21:04:28.599Z,17.90
2023-05-04T21:06:58.165Z,17.80
2023-05-04T21:09:28.185Z,17.80
2023-05-04T21:11:56.525Z,17.80
2023-05-04T21:14:25.010Z,17.80
2023-05-04T21:16:53.341Z,17.80
2023-05-04T21:19:21.648Z,17.80
2023-05-04T21:21:51.358Z,17.80
2023-05-04T21:24:21.965Z,17.80
2023-05-04T21:26:50.854Z,17.80
2023-05-04T21:29:19.143Z,17.80
2023-05-04T21:31:50.369Z,17.70
2023-05-04T21:34:21.594Z,17.80
2023-05-04T21:36:51.359Z,17.80
2023-05-04T21:39:19.663Z,17.80
2023-05-04T21:41:48.032Z,17.80
2023-05-04T21:44:16.328Z,17.70
2023-05-04T21:46:46.608Z,17.70
2023-05-04T21:49:14.931Z,17.70
2023-05-04T21:51:43.247Z,17.70
2023-05-04T21:54:12.976Z,17.70
2023-05-04T21:56:42.546Z,17.70
2023-05-04T21:59:10.879Z,17.70
2023-05-04T22:01:39.138Z,17.70
2023-05-04T22:04:08.131Z,17.70
2023-05-04T22:06:36.801Z,17.60
2023-05-04T22:09:05.358Z,17.70
2023-05-04T22:11:35.104Z,17.70
2023-05-04T22:14:03.451Z,17.70
2023-05-04T22:16:31.791Z,17.70
2023-05-04T22:19:00.591Z,17.70
2023-05-04T22:21:28.938Z,17.70
2023-05-04T22:23:57.391Z,17.70
2023-05-04T22:26:25.795Z,17.60
2023-05-04T22:28:55.580Z,17.70
2023-05-04T22:31:24.041Z,17.70
2023-05-04T22:33:52.504Z,17.70
2023-05-04T22:36:20.829Z,17.60
2023-05-04T22:38:51.654Z,17.60
2023-05-04T22:41:19.994Z,17.60
2023-05-04T22:43:48.236Z,17.60
2023-05-04T22:46:18.423Z,17.60
2023-05-04T22:48:47.992Z,17.60
2023-05-04T22:51:16.429Z,17.60
2023-05-04T22:53:45.024Z,17.60
2023-05-04T22:56:13.379Z,17.60
2023-05-04T22:58:41.967Z,17.60
2023-05-04T23:01:11.779Z,17.60
2023-05-04T23:03:41.665Z,17.60
2023-05-04T23:06:10.197Z,17.60
2023-05-04T23:08:38.747Z,17.60
2023-05-04T23:11:07.151Z,17.60
2023-05-04T23:13:35.436Z,17.60
2023-05-04T23:16:03.980Z,17.60
2023-05-04T23:18:33.145Z,17.60
2023-05-04T23:21:02.995Z,17.60
2023-05-04T23:23:31.302Z,17.50
2023-05-04T23:25:59.525Z,17.60
2023-05-04T23:28:27.798Z,17.60
2023-05-04T23:30:56.320Z,17.60
2023-05-04T23:33:24.704Z,17.60
2023-05-04T23:35:56.439Z,17.60
2023-05-04T23:38:26.211Z,17.60
2023-05-04T23:40:54.501Z,17.50
2023-05-04T23:43:23.624Z,17.50
2023-05-04T23:45:52.122Z,17.50
2023-05-04T23:48:20.483Z,17.50
2023-05-04T23:50:57.440Z,17.50
2023-05-04T23:53:27.212Z,17.50
2023-05-04T23:56:01.276Z,17.40
2023-05-04T23:58:31.596Z,17.40
